Time;durP1;ratioP1;P1;durP2;ratioP2;P2;SDS_P1;SDS_P2;PMS_P1;PMS_P2;Temp;Humidity;BMP_temperature;BMP_pressure;BME280_temperature;BME280_humidity;BME280_pressure;Samples;Min_cycle;Max_cycle;Signal;HPM_P1;HPM_P2
2023/05/26 00:00:44;;;;;;;;;;;18.70;39.60;;;17.74;40.60;102146.00;12255820;19;19918;-85
2023/05/26 00:04:45;;;;;;;;;;;18.60;39.60;;;17.69;40.61;102141.88;12251233;19;19983;-85
2023/05/26 00:08:47;;;;;;;;;;;18.60;39.60;;;17.56;40.67;102132.16;12251645;19;19923;-85
2023/05/26 00:12:49;;;;;;;;;;;18.50;39.60;;;17.52;40.41;102138.56;12251807;19;19907;-85
2023/05/26 00:16:50;;;;;;;;;;;18.40;39.60;;;17.46;40.25;102137.16;12250396;19;19926;-85
2023/05/26 00:20:55;;;;;;;;;;;18.40;39.60;;;17.42;40.49;102135.66;12253169;19;19918;-85
2023/05/26 00:24:57;;;;;;;;;;;18.30;39.60;;;17.33;40.78;102130.91;12251538;19;19919;-85
2023/05/26 00:28:59;;;;;;;;;;;18.20;39.60;;;17.29;40.66;102132.06;12254509;19;19915;-85
2023/05/26 00:33:02;;;;;;;;;;;18.20;39.70;;;17.29;40.67;102145.28;12256406;19;19919;-85
2023/05/26 00:37:05;;;;;;;;;;;18.10;39.70;;;17.03;40.72;102116.00;12251904;19;19974;-85
2023/05/26 00:41:07;;;;;;;;;;;18.00;39.70;;;16.89;40.77;102095.72;12261251;19;19926;-85
2023/05/26 00:45:09;;;;;;;;;;;18.00;39.70;;;17.09;40.85;102136.75;12263042;19;19944;-85
2023/05/26 00:49:11;;;;;;;;;;;18.00;39.70;;;16.70;40.79;102097.72;12267344;19;20256;-85
2023/05/26 00:53:13;;;;;;;;;;;17.90;39.70;;;17.02;40.85;102153.91;12267564;19;19932;-85
2023/05/26 00:57:15;;;;;;;;;;;17.80;39.70;;;16.90;40.95;102142.25;12256534;19;19923;-85
2023/05/26 01:01:17;;;;;;;;;;;17.80;39.70;;;16.84;41.08;102144.44;12263097;19;20259;-85
2023/05/26 01:05:18;;;;;;;;;;;17.70;39.70;;;16.84;40.85;102152.34;12261167;19;19942;-86
2023/05/26 01:09:21;;;;;;;;;;;17.70;39.80;;;16.69;40.72;102147.00;12263833;19;19926;-85
2023/05/26 01:13:27;;;;;;;;;;;17.60;39.70;;;16.65;40.87;102163.09;12260861;19;19934;-86
2023/05/26 01:17:45;;;;;;;;;;;17.60;39.70;;;16.52;40.77;102152.38;12262316;19;19944;-85
2023/05/26 01:21:49;;;;;;;;;;;17.40;39.70;;;16.33;41.05;102137.63;12261863;19;19950;-85
2023/05/26 01:26:10;;;;;;;;;;;17.30;39.70;;;16.27;40.92;102143.25;12257853;19;20342;-86
2023/05/26 01:30:12;;;;;;;;;;;17.20;39.70;;;16.24;40.92;102150.47;12263990;19;20294;-85
2023/05/26 01:34:13;;;;;;;;;;;17.10;39.80;;;16.18;40.99;102150.84;12258421;19;20346;-85
2023/05/26 01:38:17;;;;;;;;;;;17.10;39.90;;;16.09;41.07;102142.50;12263744;19;19937;-85
2023/05/26 01:42:24;;;;;;;;;;;17.00;39.90;;;16.05;41.27;102137.47;12257901;19;19939;-85
2023/05/26 01:46:35;;;;;;;;;;;16.90;39.90;;;15.98;41.21;102141.38;12254207;19;19918;-85
2023/05/26 01:50:45;;;;;;;;;;;16.90;40.00;;;15.99;41.33;102149.22;12258334;19;19915;-85
2023/05/26 01:54:56;;;;;;;;;;;16.80;40.00;;;15.88;41.18;102148.97;12256769;19;19986;-85
2023/05/26 01:58:59;;;;;;;;;;;16.80;40.00;;;15.90;41.14;102163.75;12261727;19;19947;-85
2023/05/26 02:03:01;;;;;;;;;;;16.80;40.00;;;15.79;41.23;102146.81;12258834;19;19930;-85
2023/05/26 02:07:05;;;;;;;;;;;16.70;40.00;;;15.66;41.15;102130.78;12253702;19;19918;-85
2023/05/26 02:11:07;;;;;;;;;;;16.70;40.00;;;15.67;41.24;102137.78;12260845;19;20349;-85
2023/05/26 02:15:09;;;;;;;;;;;16.60;40.00;;;15.57;41.28;102136.56;12257063;19;19936;-85
2023/05/26 02:19:12;;;;;;;;;;;16.60;40.00;;;15.58;41.27;102152.28;12263159;19;19923;-86
2023/05/26 02:23:14;;;;;;;;;;;16.50;40.00;;;15.45;41.38;102148.59;12260741;19;19918;-85
2023/05/26 02:27:16;;;;;;;;;;;16.40;40.00;;;15.35;41.33;102147.38;12258478;19;20254;-86
2023/05/26 02:31:22;;;;;;;;;;;16.40;40.00;;;15.40;41.41;102167.25;12262519;19;19926;-85
2023/05/26 02:35:23;;;;;;;;;;;16.30;40.10;;;15.20;41.53;102147.25;12257373;19;19938;-85
2023/05/26 02:39:25;;;;;;;;;;;16.20;40.00;;;15.08;41.43;102144.41;12261400;19;19915;-85
2023/05/26 02:43:27;;;;;;;;;;;16.20;40.10;;;15.18;41.45;102169.31;12258140;19;19936;-86
2023/05/26 02:47:28;;;;;;;;;;;16.10;40.10;;;15.06;41.46;102168.16;12258735;19;20255;-85
2023/05/26 02:51:30;;;;;;;;;;;16.00;40.00;;;15.07;41.50;102174.25;12257450;19;19933;-85
2023/05/26 02:55:32;;;;;;;;;;;16.00;40.10;;;15.04;41.52;102176.13;12256595;19;19966;-85
2023/05/26 02:59:34;;;;;;;;;;;15.90;40.10;;;14.99;41.55;102178.16;12257761;19;19911;-85
2023/05/26 03:03:35;;;;;;;;;;;15.90;40.10;;;14.63;41.52;102119.50;12252679;19;19923;-85
2023/05/26 03:07:37;;;;;;;;;;;15.80;40.10;;;14.83;41.55;102172.78;12253878;19;19919;-85
2023/05/26 03:11:39;;;;;;;;;;;15.80;40.10;;;14.77;41.56;102183.63;12257481;19;19932;-85
2023/05/26 03:15:42;;;;;;;;;;;15.70;40.20;;;14.69;41.58;102184.91;12253523;19;19991;-85
2023/05/26 03:19:47;;;;;;;;;;;15.70;40.20;;;14.59;41.64;102171.38;12256085;19;19921;-85
2023/05/26 03:23:49;;;;;;;;;;;15.60;40.20;;;14.63;41.76;102187.84;12251868;19;19919;-85
2023/05/26 03:27:51;;;;;;;;;;;15.60;40.30;;;14.54;41.70;102182.09;12254148;19;19915;-85
2023/05/26 03:31:54;;;;;;;;;;;15.50;40.30;;;14.47;41.69;102172.78;12258009;19;20339;-85
2023/05/26 03:36:00;;;;;;;;;;;15.50;40.30;;;14.45;41.78;102184.31;12255542;19;19914;-85
2023/05/26 03:40:05;;;;;;;;;;;15.40;40.20;;;14.49;41.67;102199.00;12257688;19;20329;-85
2023/05/26 03:44:08;;;;;;;;;;;15.40;40.30;;;14.36;41.75;102180.31;12256342;19;20594;-85
2023/05/26 03:48:13;;;;;;;;;;;15.40;40.30;;;14.36;41.90;102188.22;12254947;19;19911;-85
2023/05/26 03:52:16;;;;;;;;;;;15.30;40.30;;;14.28;41.95;102187.72;12258466;19;19974;-85
2023/05/26 03:56:18;;;;;;;;;;;15.30;40.40;;;14.33;41.96;102201.50;12254474;19;20375;-85
2023/05/26 04:00:20;;;;;;;;;;;15.30;40.40;;;14.12;42.00;102172.72;12258018;19;20317;-85
2023/05/26 04:04:21;;;;;;;;;;;15.30;40.50;;;14.28;41.95;102208.75;12249028;19;19923;-86
2023/05/26 04:08:23;;;;;;;;;;;15.30;40.60;;;14.13;41.90;102184.06;12257967;19;19935;-86
2023/05/26 04:12:25;;;;;;;;;;;15.30;40.60;;;14.01;42.07;102174.09;12255757;19;19940;-85
2023/05/26 04:16:26;;;;;;;;;;;15.20;40.60;;;14.19;42.05;102202.16;12261652;19;20313;-85
2023/05/26 04:20:29;;;;;;;;;;;15.20;40.70;;;14.17;42.11;102204.84;12267811;19;19944;-86
2023/05/26 04:24:30;;;;;;;;;;;15.20;40.70;;;14.16;42.04;102208.41;12264406;19;19947;-85
2023/05/26 04:28:33;;;;;;;;;;;15.20;40.90;;;13.89;42.18;102157.16;12270466;19;19918;-85
2023/05/26 04:32:59;;;;;;;;;;;15.30;41.10;;;14.28;42.25;102232.41;12265454;19;19946;-85
2023/05/26 04:37:14;;;;;;;;;;;15.30;41.10;;;14.32;42.28;102233.97;12272477;19;19975;-86
2023/05/26 04:41:16;;;;;;;;;;;15.30;41.20;;;14.31;42.30;102234.88;12274801;19;19907;-85
2023/05/26 04:45:18;;;;;;;;;;;15.40;41.30;;;14.36;42.40;102243.41;12277228;19;19919;-86
2023/05/26 04:49:25;;;;;;;;;;;15.30;41.30;;;14.39;42.47;102232.75;12278251;19;19964;-86
2023/05/26 04:53:26;;;;;;;;;;;15.40;41.60;;;14.43;42.56;102221.19;12279790;19;19923;-85
2023/05/26 04:57:28;;;;;;;;;;;15.50;41.70;;;14.40;42.45;102208.19;12279911;19;20243;-86
2023/05/26 05:01:32;;;;;;;;;;;15.50;41.80;;;14.47;42.50;102203.47;12275648;19;19926;-86
2023/05/26 05:05:52;;;;;;;;;;;15.60;42.20;;;14.62;42.51;102223.81;12271196;19;19922;-86
2023/05/26 05:09:54;;;;;;;;;;;15.70;42.10;;;14.69;42.62;102237.50;12275950;19;19919;-86
2023/05/26 05:13:56;;;;;;;;;;;15.70;41.90;;;14.60;42.59;102210.72;12276774;19;19930;-86
2023/05/26 05:17:59;;;;;;;;;;;15.80;41.70;;;14.65;42.69;102215.78;12276131;19;20362;-86
2023/05/26 05:22:01;;;;;;;;;;;15.90;41.80;;;14.81;42.64;102229.03;12269698;19;19934;-86
2023/05/26 05:26:03;;;;;;;;;;;15.90;41.70;;;14.83;42.72;102228.03;12268879;19;19930;-87
2023/05/26 05:30:05;;;;;;;;;;;16.00;42.20;;;14.96;42.78;102237.94;12271052;19;19918;-86
2023/05/26 05:34:07;;;;;;;;;;;16.10;42.40;;;15.05;42.85;102243.59;12268997;19;19919;-86
2023/05/26 05:38:08;;;;;;;;;;;16.10;42.20;;;15.07;42.84;102238.28;12275318;19;19923;-87
2023/05/26 05:42:10;;;;;;;;;;;16.20;42.60;;;15.17;42.93;102236.00;12271667;19;20425;-87
2023/05/26 05:46:12;;;;;;;;;;;16.30;42.50;;;15.34;43.00;102241.28;12271308;19;19946;-86
2023/05/26 05:50:28;;;;;;;;;;;16.50;42.40;;;15.54;42.94;102242.88;12274308;19;19955;-85
2023/05/26 05:54:30;;;;;;;;;;;16.60;42.20;;;15.68;43.07;102245.69;12258771;19;19915;-88
2023/05/26 05:58:33;;;;;;;;;;;16.80;42.30;;;15.75;43.18;102238.31;12265729;19;19926;-84
2023/05/26 06:02:34;;;;;;;;;;;17.00;42.70;;;16.03;43.07;102248.22;12263044;19;19945;-85
2023/05/26 06:06:36;;;;;;;;;;;17.20;42.50;;;16.21;43.13;102262.22;12267752;19;20268;-85
2023/05/26 06:10:39;;;;;;;;;;;17.30;42.40;;;16.14;43.25;102230.03;12273828;19;19922;-85
2023/05/26 06:14:40;;;;;;;;;;;17.50;42.30;;;16.28;43.09;102229.31;12272646;19;19923;-85
2023/05/26 06:18:42;;;;;;;;;;;17.70;42.20;;;16.52;43.14;102256.09;12269437;19;19919;-86
2023/05/26 06:22:44;;;;;;;;;;;17.80;41.80;;;16.65;43.17;102258.88;12267042;19;19915;-84
2023/05/26 06:26:46;;;;;;;;;;;18.00;42.00;;;16.84;43.42;102271.09;12270976;19;19953;-85
2023/05/26 06:30:47;;;;;;;;;;;18.10;41.80;;;16.93;43.08;102278.47;12266780;19;19923;-85
2023/05/26 06:35:10;;;;;;;;;;;18.20;42.00;;;17.03;43.27;102277.84;12274021;19;19922;-85
2023/05/26 06:39:12;;;;;;;;;;;18.30;42.20;;;17.10;43.01;102274.88;12274028;19;19919;-85
2023/05/26 06:43:14;;;;;;;;;;;18.40;41.80;;;17.01;43.17;102244.56;12266549;19;19919;-85
2023/05/26 06:47:23;;;;;;;;;;;18.50;41.90;;;17.30;43.25;102274.53;12264596;19;19911;-85
2023/05/26 06:51:25;;;;;;;;;;;18.60;42.20;;;17.37;43.37;102277.69;12270408;19;20524;-85
2023/05/26 06:55:28;;;;;;;;;;;18.60;41.80;;;17.36;43.13;102265.41;12272142;19;19930;-85
2023/05/26 06:59:29;;;;;;;;;;;18.70;41.70;;;17.39;42.95;102260.81;12274886;19;19967;-85
2023/05/26 07:03:33;;;;;;;;;;;18.70;41.30;;;17.52;43.07;102268.00;12267819;19;19923;-85
2023/05/26 07:07:35;;;;;;;;;;;18.80;42.00;;;17.52;43.03;102266.19;12275932;19;19915;-84
2023/05/26 07:11:37;;;;;;;;;;;18.80;41.70;;;17.69;43.17;102273.97;12276644;19;19923;-83
2023/05/26 07:15:44;;;;;;;;;;;18.90;41.20;;;17.76;42.99;102279.72;12272727;19;19931;-85
2023/05/26 07:19:48;;;;;;;;;;;19.00;41.30;;;17.76;43.15;102257.72;12268209;19;19919;-85
2023/05/26 07:23:50;;;;;;;;;;;19.10;41.60;;;17.87;43.37;102250.03;12268027;19;19924;-85
2023/05/26 07:27:53;;;;;;;;;;;19.20;41.50;;;18.15;43.20;102270.31;12270332;19;19986;-85
2023/05/26 07:31:55;;;;;;;;;;;19.40;41.10;;;18.24;43.20;102266.25;12271949;19;19915;-85
2023/05/26 07:35:57;;;;;;;;;;;19.50;40.90;;;18.43;43.25;102292.38;12268903;19;19930;-85
2023/05/26 07:39:59;;;;;;;;;;;19.70;41.00;;;18.57;43.08;102289.69;12271086;19;19915;-85
2023/05/26 07:44:01;;;;;;;;;;;19.80;40.90;;;18.64;43.11;102276.94;12270191;19;19951;-85
2023/05/26 07:48:03;;;;;;;;;;;19.90;40.50;;;18.58;43.15;102249.94;12272609;19;19927;-85
2023/05/26 07:52:05;;;;;;;;;;;20.10;40.40;;;18.86;42.77;102282.56;12274708;19;19915;-85
2023/05/26 07:56:06;;;;;;;;;;;20.20;40.10;;;19.07;42.91;102300.66;12270342;19;19927;-85
2023/05/26 08:00:09;;;;;;;;;;;20.30;40.30;;;19.23;43.06;102306.63;12272086;19;19919;-86
2023/05/26 08:04:16;;;;;;;;;;;20.40;40.40;;;19.30;43.01;102292.00;12270408;19;19920;-85
2023/05/26 08:08:17;;;;;;;;;;;20.60;40.30;;;19.44;42.96;102284.00;12272000;19;19918;-85
2023/05/26 08:12:19;;;;;;;;;;;20.80;39.10;;;19.64;43.00;102292.38;12268876;19;19931;-86
2023/05/26 08:16:20;;;;;;;;;;;20.90;39.00;;;19.74;42.97;102288.19;12269478;19;19919;-86
2023/05/26 08:20:22;;;;;;;;;;;21.00;38.50;;;19.87;42.56;102274.91;12268864;19;19926;-86
2023/05/26 08:24:25;;;;;;;;;;;21.10;39.10;;;19.96;42.80;102260.16;12269766;19;19923;-86
2023/05/26 08:28:26;;;;;;;;;;;21.30;39.60;;;20.17;42.68;102279.88;12280781;19;19926;-85
2023/05/26 08:32:27;;;;;;;;;;;21.40;38.70;;;20.30;42.70;102279.81;12287917;19;19910;-85
2023/05/26 08:36:29;;;;;;;;;;;21.50;39.10;;;20.34;42.65;102262.75;12270117;19;19930;-85
2023/05/26 08:40:30;;;;;;;;;;;21.60;39.10;;;20.47;42.84;102265.34;12270580;19;19923;-85
2023/05/26 08:44:33;;;;;;;;;;;21.70;39.10;;;20.68;42.76;102287.69;12257344;19;19923;-85
2023/05/26 08:48:36;;;;;;;;;;;21.90;39.00;;;20.82;42.27;102280.50;12246684;19;19934;-85
2023/05/26 08:52:40;;;;;;;;;;;22.00;39.20;;;20.82;42.56;102261.94;12242266;19;19919;-85
2023/05/26 08:56:41;;;;;;;;;;;22.20;39.10;;;21.03;42.23;102281.56;12240175;19;20361;-85
2023/05/26 09:00:45;;;;;;;;;;;22.30;39.00;;;21.07;42.04;102266.28;12252016;19;20262;-85
2023/05/26 09:04:46;;;;;;;;;;;22.40;39.00;;;21.26;42.46;102279.03;12260903;19;19915;-85
2023/05/26 09:08:48;;;;;;;;;;;22.50;39.00;;;21.41;42.27;102281.41;12262987;19;19918;-84
2023/05/26 09:13:17;;;;;;;;;;;22.60;38.90;;;21.26;41.87;102240.00;12256828;19;20367;-84
2023/05/26 09:17:19;;;;;;;;;;;22.70;38.80;;;21.54;41.85;102281.28;12245902;19;20023;-85
2023/05/26 09:21:21;;;;;;;;;;;22.80;38.30;;;21.52;42.04;102267.28;12251140;19;19931;-85
2023/05/26 09:25:42;;;;;;;;;;;22.90;37.90;;;21.59;42.19;102260.50;12251735;19;19928;-85
2023/05/26 09:29:58;;;;;;;;;;;22.90;37.70;;;21.69;41.75;102273.09;12252087;19;20464;-85
2023/05/26 09:33:59;;;;;;;;;;;22.90;37.60;;;21.70;41.88;102265.00;12257380;19;20254;-85
2023/05/26 09:38:04;;;;;;;;;;;23.00;37.90;;;21.78;41.95;102275.03;12258793;19;19907;-85
2023/05/26 09:42:09;;;;;;;;;;;23.00;37.30;;;21.86;41.45;102270.78;12255238;19;19941;-86
2023/05/26 09:46:22;;;;;;;;;;;23.10;38.20;;;22.05;41.63;102275.50;12254266;19;19922;-84
2023/05/26 09:50:24;;;;;;;;;;;23.20;37.90;;;22.12;41.84;102270.56;12253266;19;19949;-84
2023/05/26 09:54:26;;;;;;;;;;;23.30;35.90;;;22.17;41.74;102256.88;12254206;19;20338;-85
2023/05/26 09:58:28;;;;;;;;;;;23.40;37.50;;;22.27;41.74;102260.53;12253792;19;19925;-86
2023/05/26 10:02:30;;;;;;;;;;;23.50;37.60;;;22.30;41.36;102254.94;12251590;19;20315;-85
2023/05/26 10:06:39;;;;;;;;;;;23.60;37.90;;;22.40;41.28;102257.72;12249334;19;20271;-84
2023/05/26 10:10:43;;;;;;;;;;;23.60;37.60;;;22.44;41.11;102249.38;12254223;19;19989;-85
2023/05/26 10:14:45;;;;;;;;;;;23.70;37.00;;;22.55;41.05;102251.16;12248239;19;19931;-85
2023/05/26 10:18:47;;;;;;;;;;;23.70;36.50;;;22.63;41.37;102258.50;12246794;19;19923;-85
2023/05/26 10:23:02;;;;;;;;;;;23.80;36.50;;;22.73;41.05;102248.78;12254699;19;19918;-85
2023/05/26 10:27:06;;;;;;;;;;;23.90;33.30;;;22.70;40.92;102238.38;12252801;19;19923;-85
2023/05/26 10:31:07;;;;;;;;;;;23.90;35.50;;;22.81;40.92;102250.81;12252837;19;19933;-83
2023/05/26 10:35:31;;;;;;;;;;;23.90;36.20;;;22.88;40.52;102250.19;12255869;19;19911;-85
2023/05/26 10:39:33;;;;;;;;;;;24.00;36.00;;;22.97;40.72;102241.44;12255519;19;19915;-85
2023/05/26 10:43:34;;;;;;;;;;;24.10;36.30;;;22.99;40.61;102244.00;12250127;19;19930;-84
2023/05/26 10:47:46;;;;;;;;;;;24.10;36.70;;;23.08;40.45;102248.53;12250967;19;19927;-84
2023/05/26 10:51:50;;;;;;;;;;;24.20;36.90;;;23.14;40.45;102239.16;12250694;19;19970;-85
2023/05/26 10:55:58;;;;;;;;;;;24.30;36.70;;;23.27;40.56;102249.66;12249401;19;20339;-85
2023/05/26 11:00:24;;;;;;;;;;;24.40;36.70;;;23.34;40.23;102249.00;12252137;19;19930;-85
2023/05/26 11:04:43;;;;;;;;;;;24.40;36.70;;;23.40;40.41;102256.47;12251248;19;19922;-87
2023/05/26 11:08:49;;;;;;;;;;;24.50;35.10;;;23.37;39.97;102234.56;12247339;19;19921;-86
2023/05/26 11:12:54;;;;;;;;;;;24.60;36.40;;;23.47;39.90;102235.47;12250336;19;19982;-85
2023/05/26 11:16:58;;;;;;;;;;;24.60;35.00;;;23.56;40.20;102233.81;12247866;19;19919;-86
2023/05/26 11:21:00;;;;;;;;;;;24.70;35.80;;;23.64;39.86;102239.34;12251167;19;19918;-86
2023/05/26 11:25:02;;;;;;;;;;;24.80;34.50;;;23.68;39.78;102227.41;12242982;19;19922;-86
2023/05/26 11:29:04;;;;;;;;;;;24.80;35.30;;;23.78;39.64;102231.00;12248626;19;19915;-86
2023/05/26 11:33:12;;;;;;;;;;;24.90;35.90;;;23.93;39.74;102228.81;12251348;19;20234;-87
2023/05/26 11:37:13;;;;;;;;;;;25.00;36.70;;;24.02;39.75;102227.16;12246426;19;19915;-87
2023/05/26 11:41:15;;;;;;;;;;;25.10;36.20;;;24.18;39.44;102231.97;12248321;19;19914;-86
2023/05/26 11:45:17;;;;;;;;;;;25.20;35.60;;;24.21;39.78;102234.38;12248778;19;19923;-86
2023/05/26 11:49:19;;;;;;;;;;;25.30;31.70;;;24.19;39.33;102233.66;12251658;19;19934;-85
2023/05/26 11:53:21;;;;;;;;;;;25.30;33.50;;;24.25;39.19;102239.31;12247687;19;20003;-85
2023/05/26 11:57:25;;;;;;;;;;;25.40;34.80;;;24.23;39.11;102227.91;12243094;19;19911;-84
2023/05/26 12:01:26;;;;;;;;;;;25.40;35.20;;;24.04;38.71;102194.00;12249013;19;19925;-86
2023/05/26 12:05:29;;;;;;;;;;;25.40;34.40;;;24.22;39.13;102212.00;12244333;19;19928;-85
2023/05/26 12:09:31;;;;;;;;;;;25.40;33.80;;;24.33;38.88;102219.06;12248972;19;19975;-85
2023/05/26 12:13:32;;;;;;;;;;;25.50;30.90;;;24.28;38.51;102222.16;12249177;19;20279;-85
2023/05/26 12:17:35;;;;;;;;;;;25.50;32.50;;;24.26;38.14;102226.78;12248252;19;19915;-84
2023/05/26 12:21:45;;;;;;;;;;;25.40;32.70;;;24.31;38.48;102224.56;12248685;19;19921;-84
2023/05/26 12:25:46;;;;;;;;;;;25.50;30.90;;;24.26;37.98;102213.44;12245800;19;19918;-85
2023/05/26 12:29:49;;;;;;;;;;;25.50;33.00;;;24.18;38.21;102197.28;12249106;19;19915;-85
2023/05/26 12:33:51;;;;;;;;;;;25.50;33.10;;;24.43;37.94;102234.13;12246803;19;19948;-84
2023/05/26 12:37:53;;;;;;;;;;;25.50;32.10;;;24.39;38.17;102229.22;12258889;19;20318;-83
2023/05/26 12:41:55;;;;;;;;;;;25.50;31.10;;;24.52;38.04;102235.16;12250957;19;19940;-85
2023/05/26 12:45:56;;;;;;;;;;;25.50;32.50;;;24.51;38.13;102225.44;12258306;19;19911;-85
2023/05/26 12:49:58;;;;;;;;;;;25.60;33.50;;;24.39;37.54;102199.84;12259041;19;19922;-86
2023/05/26 12:54:01;;;;;;;;;;;25.60;33.10;;;24.68;37.64;102235.47;12256422;19;19925;-83
2023/05/26 12:58:02;;;;;;;;;;;25.70;32.50;;;24.66;37.75;102237.41;12257343;19;19915;-85
2023/05/26 13:02:04;;;;;;;;;;;25.70;30.60;;;24.67;37.32;102224.91;12257497;19;19925;-83
2023/05/26 13:06:07;;;;;;;;;;;25.70;29.70;;;24.60;37.17;102231.78;12255021;19;20438;-84
2023/05/26 13:10:09;;;;;;;;;;;25.70;31.30;;;24.63;37.02;102227.03;12259658;19;19915;-83
2023/05/26 13:14:11;;;;;;;;;;;25.70;32.90;;;24.63;36.99;102227.03;12256900;19;19919;-83
2023/05/26 13:18:13;;;;;;;;;;;25.70;32.30;;;24.64;37.05;102220.69;12258714;19;19922;-83
2023/05/26 13:22:15;;;;;;;;;;;25.70;33.10;;;24.73;36.89;102216.31;12255477;19;19911;-84
2023/05/26 13:26:16;;;;;;;;;;;25.70;31.90;;;24.57;36.41;102200.00;12255586;19;19931;-86
2023/05/26 13:30:18;;;;;;;;;;;25.70;30.60;;;24.69;36.78;102225.59;12259111;19;19919;-85
2023/05/26 13:34:19;;;;;;;;;;;25.80;31.50;;;24.74;36.26;102223.34;12254437;19;19922;-83
2023/05/26 13:38:21;;;;;;;;;;;25.70;29.70;;;24.68;36.16;102227.44;12258228;19;19923;-83
2023/05/26 13:42:23;;;;;;;;;;;25.70;30.30;;;24.59;36.53;102214.91;12252958;19;19927;-83
2023/05/26 13:46:24;;;;;;;;;;;25.70;30.70;;;24.64;36.34;102219.84;12251565;19;19919;-85
2023/05/26 13:50:26;;;;;;;;;;;25.60;28.30;;;24.61;36.03;102212.94;12257301;19;19923;-84
2023/05/26 13:54:27;;;;;;;;;;;25.60;31.20;;;24.62;36.04;102219.13;12254798;19;19927;-83
2023/05/26 13:58:29;;;;;;;;;;;25.60;30.10;;;24.36;36.04;102171.59;12255583;19;19930;-83
2023/05/26 14:02:31;;;;;;;;;;;25.70;29.70;;;24.56;36.01;102199.16;12253547;19;19937;-83
2023/05/26 14:06:35;;;;;;;;;;;25.60;30.10;;;24.66;35.50;102223.22;12243498;19;20285;-83
2023/05/26 14:10:36;;;;;;;;;;;25.60;30.20;;;24.66;35.69;102220.56;12254510;19;19927;-84
2023/05/26 14:14:38;;;;;;;;;;;25.60;31.60;;;24.67;35.62;102214.22;12250055;19;19927;-84
2023/05/26 14:18:39;;;;;;;;;;;25.60;31.80;;;24.71;35.42;102223.66;12250736;19;19926;-83
2023/05/26 14:22:40;;;;;;;;;;;25.60;29.60;;;24.71;35.35;102223.66;12250385;19;19922;-83
2023/05/26 14:26:42;;;;;;;;;;;25.60;31.80;;;24.72;35.44;102228.84;12247795;19;19941;-83
2023/05/26 14:30:44;;;;;;;;;;;25.60;31.90;;;24.73;35.60;102233.22;12252712;19;19996;-83
2023/05/26 14:34:46;;;;;;;;;;;25.70;31.10;;;24.48;35.19;102188.34;12249879;19;19919;-84
2023/05/26 14:38:48;;;;;;;;;;;25.60;32.10;;;24.69;35.32;102226.44;12253349;19;19933;-84
2023/05/26 14:42:50;;;;;;;;;;;25.80;32.20;;;24.71;35.13;102224.47;12249676;19;19940;-84
2023/05/26 14:46:51;;;;;;;;;;;25.60;32.20;;;24.72;35.15;102226.16;12247098;19;19930;-83
2023/05/26 14:50:53;;;;;;;;;;;25.60;31.80;;;24.77;35.46;102227.59;12250622;19;20295;-83
2023/05/26 14:54:54;;;;;;;;;;;25.60;32.30;;;24.69;35.07;102215.75;12251662;19;19939;-82
2023/05/26 14:58:56;;;;;;;;;;;25.60;32.50;;;24.74;35.01;102223.34;12251789;19;19946;-83
2023/05/26 15:02:57;;;;;;;;;;;25.70;30.50;;;24.77;35.29;102228.41;12241771;19;19919;-83
2023/05/26 15:07:00;;;;;;;;;;;25.70;32.50;;;24.78;34.94;102229.25;12247523;19;20643;-83
2023/05/26 15:11:01;;;;;;;;;;;25.70;31.40;;;24.70;34.68;102228.13;12249829;19;20341;-83
2023/05/26 15:15:03;;;;;;;;;;;25.70;31.00;;;24.63;34.83;102224.34;12246290;19;19922;-83
2023/05/26 15:19:04;;;;;;;;;;;25.60;31.90;;;24.60;34.82;102227.31;12251039;19;19914;-84
2023/05/26 15:23:06;;;;;;;;;;;25.60;31.60;;;24.57;34.88;102227.56;12248522;19;19923;-82
2023/05/26 15:27:08;;;;;;;;;;;25.50;31.60;;;24.38;34.97;102187.44;12245817;19;19914;-83
2023/05/26 15:31:09;;;;;;;;;;;25.50;32.30;;;24.55;34.75;102221.53;12249020;19;19919;-83
2023/05/26 15:35:10;;;;;;;;;;;25.40;32.30;;;24.49;34.93;102206.03;12246518;19;19919;-83
2023/05/26 15:39:12;;;;;;;;;;;25.40;32.50;;;24.47;34.96;102205.34;12242507;19;20362;-83
2023/05/26 15:43:13;;;;;;;;;;;25.40;32.00;;;24.57;34.42;102222.22;12240861;19;19944;-84
2023/05/26 15:47:14;;;;;;;;;;;25.40;31.90;;;24.47;34.61;102210.69;12245444;19;19939;-83
2023/05/26 15:51:16;;;;;;;;;;;25.40;31.80;;;24.53;34.77;102226.16;12245444;19;19923;-83
2023/05/26 15:55:17;;;;;;;;;;;25.30;32.40;;;24.46;34.73;102211.66;12247205;19;19911;-84
2023/05/26 15:59:19;;;;;;;;;;;25.30;31.80;;;24.42;34.36;102202.22;12243438;19;19993;-84
2023/05/26 16:03:22;;;;;;;;;;;25.30;31.70;;;24.32;34.35;102183.50;12245377;19;19918;-84
2023/05/26 16:07:24;;;;;;;;;;;25.30;32.50;;;24.36;34.64;102205.44;12243498;19;19928;-82
2023/05/26 16:11:25;;;;;;;;;;;25.20;31.20;;;24.28;34.41;102208.81;12241482;19;19911;-83
2023/05/26 16:15:27;;;;;;;;;;;25.20;31.60;;;24.31;34.62;102226.41;12243280;19;20317;-83
2023/05/26 16:19:28;;;;;;;;;;;25.10;31.00;;;24.23;34.22;102216.41;12247089;19;19934;-82
2023/05/26 16:23:30;;;;;;;;;;;25.10;31.50;;;24.20;34.26;102212.19;12242313;19;19933;-83
2023/05/26 16:27:32;;;;;;;;;;;25.10;32.50;;;24.21;34.37;102216.53;12246087;19;19927;-83
2023/05/26 16:31:33;;;;;;;;;;;25.00;32.40;;;24.17;34.30;102214.25;12242516;19;19926;-83
2023/05/26 16:35:40;;;;;;;;;;;25.00;32.00;;;24.08;34.08;102189.22;12242682;19;20294;-83
2023/05/26 16:39:45;;;;;;;;;;;25.00;32.90;;;24.15;34.58;102213.56;12237848;19;20199;-84
2023/05/26 16:43:47;;;;;;;;;;;24.90;32.70;;;23.90;34.17;102169.53;12243056;19;19975;-83
2023/05/26 16:47:48;;;;;;;;;;;24.90;32.30;;;24.06;34.33;102207.19;12243711;19;20284;-83
2023/05/26 16:51:50;;;;;;;;;;;24.90;32.00;;;23.89;34.37;102195.38;12246083;19;19923;-84
2023/05/26 16:55:51;;;;;;;;;;;24.80;32.40;;;23.90;34.48;102212.22;12241237;19;19914;-83
2023/05/26 16:59:53;;;;;;;;;;;24.70;32.60;;;23.79;34.13;102198.03;12246317;19;20587;-84
2023/05/26 17:03:55;;;;;;;;;;;24.60;33.00;;;23.76;34.41;102202.75;12234423;19;19919;-82
2023/05/26 17:07:56;;;;;;;;;;;24.60;32.50;;;23.67;34.32;102200.88;12245736;19;20677;-83
2023/05/26 17:11:58;;;;;;;;;;;24.50;32.90;;;23.61;34.18;102207.59;12241420;19;19944;-83
2023/05/26 17:16:00;;;;;;;;;;;24.40;32.30;;;23.50;34.44;102205.88;12239220;19;19965;-83
2023/05/26 17:20:02;;;;;;;;;;;24.30;32.80;;;23.41;34.35;102199.50;12240984;19;19986;-83
2023/05/26 17:24:04;;;;;;;;;;;24.20;32.80;;;23.36;34.03;102212.41;12249828;19;19919;-83
2023/05/26 17:28:06;;;;;;;;;;;24.10;32.30;;;23.25;34.34;102220.47;12255732;19;19919;-83
2023/05/26 17:32:09;;;;;;;;;;;24.10;32.70;;;23.10;34.08;102214.63;12257044;19;19915;-83
2023/05/26 17:36:11;;;;;;;;;;;23.90;32.70;;;23.02;34.04;102221.56;12251751;19;20298;-83
2023/05/26 17:40:12;;;;;;;;;;;23.90;33.20;;;22.90;34.38;102218.06;12254473;19;19919;-83
2023/05/26 17:44:14;;;;;;;;;;;23.80;33.20;;;22.90;34.47;102231.38;12251450;19;19943;-83
2023/05/26 17:48:16;;;;;;;;;;;23.70;33.30;;;22.85;34.27;102231.78;12254863;19;19922;-84
2023/05/26 17:52:17;;;;;;;;;;;23.60;33.00;;;22.51;34.49;102183.97;12254347;19;19926;-83
2023/05/26 17:56:19;;;;;;;;;;;23.50;33.40;;;22.74;34.17;102240.69;12250016;19;19933;-81
2023/05/26 18:00:21;;;;;;;;;;;23.50;33.50;;;22.69;34.58;102239.38;12254550;19;19919;-84
2023/05/26 18:04:22;;;;;;;;;;;23.40;33.60;;;22.61;34.52;102253.31;12250945;19;19923;-83
2023/05/26 18:08:24;;;;;;;;;;;23.40;33.40;;;22.50;34.19;102240.03;12254658;19;19922;-83
2023/05/26 18:12:26;;;;;;;;;;;23.30;33.50;;;22.42;34.28;102248.66;12253357;19;20361;-83